createdAt,value
2023-05-08T00:03:08.897Z,8.93
2023-05-08T00:07:20.461Z,8.38
2023-05-08T00:11:32.011Z,8.60
2023-05-08T00:15:43.582Z,9.20
2023-05-08T00:19:55.538Z,9.48
2023-05-08T00:24:07.264Z,8.45
2023-05-08T00:28:18.751Z,9.57
2023-05-08T00:32:30.414Z,8.90
2023-05-08T00:36:42.007Z,9.02
2023-05-08T00:40:53.510Z,9.75
2023-05-08T00:45:05.749Z,9.23
2023-05-08T00:49:17.726Z,9.32
2023-05-08T00:53:32.892Z,9.30
2023-05-08T00:57:47.602Z,9.60
2023-05-08T01:02:00.453Z,10.25
2023-05-08T01:06:12.072Z,9.90
2023-05-08T01:10:23.849Z,9.70
2023-05-08T01:15:18.916Z,9.70
2023-05-08T01:20:06.077Z,9.48
2023-05-08T01:24:36.566Z,9.52
2023-05-08T01:29:17.602Z,9.70
2023-05-08T01:33:38.711Z,9.68
2023-05-08T01:38:03.795Z,10.20
2023-05-08T01:42:29.784Z,9.60
2023-05-08T01:46:44.109Z,9.65
2023-05-08T01:51:01.828Z,9.63
2023-05-08T01:55:20.109Z,10.63
2023-05-08T01:59:35.265Z,10.10
2023-05-08T02:03:49.040Z,10.55
2023-05-08T02:08:01.431Z,9.85
2023-05-08T02:12:14.543Z,10.13
2023-05-08T02:16:27.264Z,10.18
2023-05-08T02:20:39.393Z,10.15
2023-05-08T02:24:55.316Z,9.55
2023-05-08T02:29:07.816Z,10.30
2023-05-08T02:33:20.738Z,10.48
2023-05-08T02:37:33.957Z,10.77
2023-05-08T02:41:46.041Z,10.70
2023-05-08T02:46:16.192Z,11.05
2023-05-08T02:50:37.543Z,10.95
2023-05-08T02:55:04.484Z,10.77
2023-05-08T02:59:26.296Z,11.50
2023-05-08T03:03:40.905Z,10.68
2023-05-08T03:07:55.923Z,9.68
2023-05-08T03:12:14.264Z,10.77
2023-05-08T03:16:30.738Z,10.95
2023-05-08T03:20:46.500Z,11.13
2023-05-08T03:25:01.364Z,10.88
2023-05-08T03:29:14.245Z,10.75
2023-05-08T03:33:27.558Z,10.70
2023-05-08T03:37:39.282Z,12.05
2023-05-08T03:41:52.055Z,11.15
2023-05-08T03:46:07.264Z,11.70
2023-05-08T03:50:19.927Z,11.95
2023-05-08T03:54:32.376Z,10.90
2023-05-08T03:59:05.328Z,11.88
2023-05-08T04:03:26.276Z,12.05
2023-05-08T04:07:53.682Z,11.93
2023-05-08T04:12:09.695Z,12.40
2023-05-08T04:16:26.262Z,12.27
2023-05-08T04:20:41.481Z,12.13
2023-05-08T04:24:58.036Z,12.20
2023-05-08T04:29:10.890Z,12.07
2023-05-08T04:33:23.647Z,12.25
2023-05-08T04:37:36.220Z,11.70
2023-05-08T04:41:48.873Z,11.57
2023-05-08T04:46:00.810Z,12.15
2023-05-08T04:50:12.872Z,12.35
2023-05-08T04:54:24.403Z,11.05
2023-05-08T04:58:36.156Z,11.40
2023-05-08T05:02:48.026Z,11.90
2023-05-08T05:06:59.700Z,11.95
2023-05-08T05:11:11.479Z,10.82
2023-05-08T05:15:23.134Z,10.77
2023-05-08T05:19:34.788Z,10.82
2023-05-08T05:23:46.433Z,10.20
2023-05-08T05:27:58.089Z,9.25
2023-05-08T05:32:11.600Z,9.77
2023-05-08T05:36:23.471Z,9.18
2023-05-08T05:40:35.822Z,9.00
2023-05-08T05:44:47.536Z,9.13
2023-05-08T05:48:59.455Z,9.35
2023-05-08T05:53:11.433Z,9.43
2023-05-08T05:57:23.137Z,9.18
2023-05-08T06:01:34.942Z,9.80
2023-05-08T06:05:47.336Z,8.75
2023-05-08T06:09:59.715Z,8.68
2023-05-08T06:14:11.391Z,9.57
2023-05-08T06:18:23.825Z,10.40
2023-05-08T06:22:37.694Z,9.73
2023-05-08T06:26:49.278Z,9.95
2023-05-08T06:31:00.927Z,9.68
2023-05-08T06:35:12.787Z,9.57
2023-05-08T06:39:24.522Z,10.50
2023-05-08T06:43:36.102Z,10.30
2023-05-08T06:47:47.743Z,9.80
2023-05-08T06:51:59.343Z,12.38
2023-05-08T06:56:11.012Z,11.00
2023-05-08T07:00:22.810Z,11.32
2023-05-08T07:04:34.434Z,12.55
2023-05-08T07:08:46.055Z,12.70
2023-05-08T07:13:01.806Z,12.05
2023-05-08T07:17:13.398Z,12.38
2023-05-08T07:21:25.067Z,11.88
2023-05-08T07:25:36.781Z,11.75
2023-05-08T07:29:48.426Z,12.55
2023-05-08T07:33:59.997Z,12.23
2023-05-08T07:38:11.723Z,13.18
2023-05-08T07:42:23.310Z,12.43
2023-05-08T07:46:34.939Z,12.23
2023-05-08T07:50:46.564Z,12.60
2023-05-08T07:54:58.291Z,12.82
2023-05-08T07:59:09.906Z,13.35
2023-05-08T08:03:21.562Z,13.43
2023-05-08T08:07:33.192Z,13.80
2023-05-08T08:11:44.754Z,13.80
2023-05-08T08:15:57.138Z,12.98
2023-05-08T08:20:09.109Z,13.57
2023-05-08T08:24:21.157Z,12.82
2023-05-08T08:28:32.803Z,14.20
2023-05-08T08:32:44.802Z,13.40
2023-05-08T08:36:56.482Z,13.73
2023-05-08T08:41:08.482Z,14.07
2023-05-08T08:45:20.048Z,13.98
2023-05-08T08:49:35.028Z,14.32
2023-05-08T08:53:50.106Z,13.40
2023-05-08T08:58:14.433Z,13.65
2023-05-08T09:02:27.276Z,13.43
2023-05-08T09:06:41.023Z,13.52
2023-05-08T09:10:55.015Z,13.63
2023-05-08T09:15:06.941Z,14.15
2023-05-08T09:19:18.902Z,13.55
2023-05-08T09:23:31.008Z,12.68
2023-05-08T09:27:42.656Z,13.27
2023-05-08T09:31:54.324Z,13.30
2023-05-08T09:36:06.162Z,11.88
2023-05-08T09:40:22.813Z,13.38
2023-05-08T09:44:43.747Z,12.52
2023-05-08T09:48:57.594Z,12.68
2023-05-08T09:53:09.296Z,11.48
2023-05-08T09:57:23.232Z,12.23
2023-05-08T10:01:36.668Z,12.88
2023-05-08T10:05:48.436Z,12.00
2023-05-08T10:10:07.050Z,12.32
2023-05-08T10:14:19.590Z,13.43
2023-05-08T10:18:35.946Z,13.75
2023-05-08T10:22:48.803Z,14.88
2023-05-08T10:27:20.338Z,14.27
2023-05-08T10:31:35.958Z,13.50
2023-05-08T10:35:48.186Z,14.63
2023-05-08T10:40:00.616Z,15.15
2023-05-08T10:44:13.256Z,14.20
2023-05-08T10:49:10.071Z,16.30
2023-05-08T10:53:39.746Z,16.02
2023-05-08T10:58:12.434Z,16.13
2023-05-08T11:02:31.585Z,16.65
2023-05-08T11:06:46.782Z,16.98
2023-05-08T11:11:14.071Z,17.08
2023-05-08T11:15:39.499Z,16.55
2023-05-08T11:20:05.888Z,16.88
2023-05-08T11:24:17.517Z,16.95
2023-05-08T11:28:40.617Z,18.77
2023-05-08T11:33:12.952Z,18.05
2023-05-08T11:37:25.626Z,18.20
2023-05-08T11:41:38.083Z,18.27
2023-05-08T11:45:50.147Z,17.85
2023-05-08T11:50:02.651Z,17.80
2023-05-08T11:54:16.736Z,17.25
2023-05-08T11:58:28.352Z,16.98
2023-05-08T12:02:46.755Z,17.55
2023-05-08T12:06:59.132Z,14.60
2023-05-08T12:11:10.823Z,16.15
2023-05-08T12:15:22.461Z,14.15
2023-05-08T12:19:34.065Z,13.75
2023-05-08T12:23:45.721Z,13.27
2023-05-08T12:27:59.853Z,14.05
2023-05-08T12:32:11.543Z,13.55
2023-05-08T12:36:23.200Z,13.80
2023-05-08T12:40:45.986Z,13.82
2023-05-08T12:44:57.690Z,14.05
2023-05-08T12:49:12.763Z,13.05
2023-05-08T12:53:24.471Z,13.43
2023-05-08T12:57:37.081Z,12.65
2023-05-08T13:01:51.584Z,13.13
2023-05-08T13:06:03.894Z,15.10
2023-05-08T13:10:16.004Z,13.10
2023-05-08T13:14:27.667Z,12.52
2023-05-08T13:18:39.749Z,13.85
2023-05-08T13:22:51.345Z,12.82
2023-05-08T13:27:03.173Z,14.00
2023-05-08T13:31:14.749Z,14.43
2023-05-08T13:35:28.301Z,14.20
2023-05-08T13:39:39.830Z,13.65
2023-05-08T13:43:51.421Z,14.20
2023-05-08T13:48:03.055Z,12.25
2023-05-08T13:52:14.626Z,14.65
2023-05-08T13:56:26.226Z,14.18
2023-05-08T14:00:38.600Z,14.15
2023-05-08T14:04:50.184Z,13.95
2023-05-08T14:09:01.850Z,14.52
2023-05-08T14:13:13.564Z,12.70
2023-05-08T14:17:25.320Z,13.63
2023-05-08T14:21:37.289Z,14.13
2023-05-08T14:25:48.887Z,12.90
2023-05-08T14:30:00.483Z,14.57
2023-05-08T14:34:12.228Z,13.52
2023-05-08T14:38:23.909Z,14.40
2023-05-08T14:42:36.231Z,14.40
2023-05-08T14:46:47.901Z,14.70
2023-05-08T14:50:59.519Z,12.35
2023-05-08T14:55:11.431Z,12.90
2023-05-08T14:59:23.146Z,14.15
2023-05-08T15:03:34.892Z,13.32
2023-05-08T15:07:46.655Z,12.18
2023-05-08T15:11:58.218Z,11.77
2023-05-08T15:16:09.926Z,13.40
2023-05-08T15:20:21.569Z,13.10
2023-05-08T15:24:33.348Z,13.45
2023-05-08T15:28:44.915Z,13.65
2023-05-08T15:32:56.538Z,13.07
2023-05-08T15:37:08.478Z,13.20
2023-05-08T15:41:20.122Z,12.63
2023-05-08T15:45:31.724Z,14.50
2023-05-08T15:49:43.293Z,17.25
2023-05-08T15:53:56.134Z,16.20
2023-05-08T15:58:07.756Z,15.70
2023-05-08T16:02:19.397Z,16.67
2023-05-08T16:06:31.049Z,15.80
2023-05-08T16:10:42.691Z,15.77
2023-05-08T16:14:54.319Z,16.70
2023-05-08T16:19:05.902Z,16.05
2023-05-08T16:23:17.499Z,16.42
2023-05-08T16:27:29.247Z,17.50
2023-05-08T16:31:40.903Z,16.52
2023-05-08T16:35:52.623Z,16.67
2023-05-08T16:40:05.121Z,17.15
2023-05-08T16:44:16.741Z,16.83
2023-05-08T16:48:28.951Z,16.02
2023-05-08T16:52:40.499Z,16.58
2023-05-08T16:56:52.124Z,16.95
2023-05-08T17:01:03.837Z,15.52
2023-05-08T17:05:15.594Z,16.23
2023-05-08T17:09:27.976Z,15.43
2023-05-08T17:13:39.608Z,17.02
2023-05-08T17:17:51.214Z,16.95
2023-05-08T17:22:03.067Z,17.02
2023-05-08T17:26:14.460Z,15.02
2023-05-08T17:30:26.323Z,13.60
2023-05-08T17:34:37.993Z,12.73
2023-05-08T17:38:51.965Z,12.25
2023-05-08T17:43:03.516Z,12.70
2023-05-08T17:47:15.035Z,11.75
2023-05-08T17:51:26.657Z,12.50
2023-05-08T17:55:38.300Z,13.77
2023-05-08T17:59:50.686Z,12.95
2023-05-08T18:04:02.293Z,13.65
2023-05-08T18:08:13.866Z,13.45
2023-05-08T18:12:25.430Z,14.32
2023-05-08T18:16:37.105Z,13.75
2023-05-08T18:20:48.693Z,15.70
2023-05-08T18:25:00.755Z,14.75
2023-05-08T18:29:12.275Z,19.25
2023-05-08T18:33:23.797Z,16.58
2023-05-08T18:37:35.401Z,16.65
2023-05-08T18:41:46.990Z,15.65
2023-05-08T18:46:00.508Z,17.40
2023-05-08T18:50:12.487Z,15.45
2023-05-08T18:54:26.816Z,16.15
2023-05-08T18:58:38.530Z,14.93
2023-05-08T19:02:50.256Z,14.98
2023-05-08T19:07:02.085Z,14.95
2023-05-08T19:11:13.695Z,15.52
2023-05-08T19:15:25.220Z,16.15
2023-05-08T19:19:36.752Z,18.33
2023-05-08T19:23:48.409Z,17.23
2023-05-08T19:27:59.989Z,15.70
2023-05-08T19:32:11.564Z,16.13
2023-05-08T19:36:23.178Z,15.57
2023-05-08T19:40:44.838Z,16.23
2023-05-08T19:45:04.260Z,16.63
2023-05-08T19:49:17.242Z,16.15
2023-05-08T19:53:28.853Z,15.75
2023-05-08T19:57:40.637Z,16.50
2023-05-08T20:01:52.586Z,16.02
2023-05-08T20:06:04.300Z,17.17
2023-05-08T20:10:16.028Z,16.40
2023-05-08T20:14:27.954Z,17.45
2023-05-08T20:18:46.168Z,16.80
2023-05-08T20:22:58.035Z,17.30
2023-05-08T20:27:09.590Z,16.85
2023-05-08T20:31:21.273Z,17.02
2023-05-08T20:35:33.393Z,17.33
2023-05-08T20:39:45.177Z,18.23
2023-05-08T20:43:56.716Z,17.95
2023-05-08T20:48:08.292Z,17.95
2023-05-08T20:52:19.906Z,18.23
2023-05-08T20:56:32.134Z,17.70
2023-05-08T21:00:43.682Z,20.58
2023-05-08T21:04:55.380Z,22.15
2023-05-08T21:09:07.244Z,19.85
2023-05-08T21:13:19.188Z,21.88
2023-05-08T21:17:31.052Z,18.70
2023-05-08T21:21:43.671Z,21.75
2023-05-08T21:25:55.216Z,21.42
2023-05-08T21:30:09.766Z,20.08
2023-05-08T21:34:21.403Z,21.23
2023-05-08T21:38:34.005Z,19.98
2023-05-08T21:42:45.965Z,20.80
2023-05-08T21:46:57.590Z,18.00
2023-05-08T21:51:09.274Z,18.45
2023-05-08T21:55:21.226Z,20.48
2023-05-08T21:59:33.375Z,18.83
2023-05-08T22:03:45.048Z,19.20
2023-05-08T22:07:56.670Z,17.00
2023-05-08T22:12:08.425Z,20.05
2023-05-08T22:16:19.990Z,20.30
2023-05-08T22:20:31.592Z,17.80
2023-05-08T22:24:43.185Z,18.00
2023-05-08T22:28:55.111Z,17.73
2023-05-08T22:33:06.771Z,18.42
2023-05-08T22:37:19.152Z,18.25
2023-05-08T22:41:30.758Z,18.80
2023-05-08T22:45:42.390Z,17.48
2023-05-08T22:49:54.045Z,17.85
2023-05-08T22:54:05.723Z,16.92
2023-05-08T22:58:21.534Z,17.52
2023-05-08T23:02:34.297Z,17.20
2023-05-08T23:06:45.941Z,17.17
2023-05-08T23:10:57.555Z,16.13
2023-05-08T23:15:09.644Z,17.65
2023-05-08T23:19:21.209Z,17.92
2023-05-08T23:23:32.994Z,19.05
2023-05-08T23:27:44.618Z,19.08
2023-05-08T23:31:56.196Z,17.63
2023-05-08T23:36:07.995Z,18.92
2023-05-08T23:40:19.560Z,18.08
2023-05-08T23:44:31.130Z,19.27
2023-05-08T23:48:42.687Z,18.05
2023-05-08T23:52:54.291Z,18.83
2023-05-08T23:57:05.972Z,19.02
